Newcastle, Utah
Current Conditions -  °F | °C
As of 1:53 PM on Thursday 23 Oct 2014 (Local Time) from KCDC Reporting Station
Clear Clear  
Wind Chill: 71°   Ceiling: Unl
Heat Index: 71°   Visibility: 10mi
Dew Point: 24°   Wind: 17mph
Humidity: 17%   Direction: 230°SW
Pressure: 30.19"   Gusts: 24mph
Location:  37.67°N, 113.55°W
Report Text: KCDC 231953Z AUTO 23015G21KT 10SM CLR 22/M04 A3019 RMK AO2 SLP179 T02171044 TSNO
Loading
Personal Weather Stations






























Interactive Weather Map
Tropical Storm Tracking
New forecast layout! Learn more

10-Day Weather Forecast

Advertisements
Track Severe Weather on mobile